Time;durP1;ratioP1;P1;durP2;ratioP2;P2;SDS_P1;SDS_P2;PMS_P1;PMS_P2;Temp;Humidity;BMP_temperature;BMP_pressure;BME280_temperature;BME280_humidity;BME280_pressure;Samples;Min_cycle;Max_cycle;Signal;HPM_P1;HPM_P2
2021/07/20 00:00:55;;;;;;;8.57;6.20;;;;;;;-145.12;100.00;63763.75;341881;28;138268;-68
2021/07/20 00:02:11;;;;;;;8.80;6.53;;;;;;;-145.12;100.00;63763.75;341818;28;136456;-68
2021/07/20 00:03:33;;;;;;;7.93;6.38;;;;;;;-145.12;100.00;63763.75;341805;28;137176;-68
2021/07/20 00:04:44;;;;;;;8.90;6.20;;;;;;;-145.12;100.00;63763.75;340932;28;161620;-70
2021/07/20 00:05:55;;;;;;;7.45;6.20;;;;;;;-145.12;100.00;63763.75;341690;28;137792;-69
2021/07/20 00:07:06;;;;;;;7.75;6.10;;;;;;;-145.12;100.00;63763.75;341780;28;138057;-69
2021/07/20 00:08:18;;;;;;;8.55;6.30;;;;;;;-145.12;100.00;63763.75;343943;28;137152;-68
2021/07/20 00:09:29;;;;;;;8.30;6.15;;;;;;;-145.12;100.00;63763.75;341776;28;136575;-70
2021/07/20 00:10:49;;;;;;;7.22;5.95;;;;;;;-145.12;100.00;63763.75;341937;28;137531;-68
2021/07/20 00:12:01;;;;;;;8.85;6.25;;;;;;;-145.12;100.00;63763.75;341774;28;138320;-69
2021/07/20 00:13:12;;;;;;;9.73;6.50;;;;;;;-145.12;100.00;63763.75;341765;28;137219;-69
2021/07/20 00:14:23;;;;;;;10.25;6.45;;;;;;;-145.12;100.00;63763.75;341855;28;137225;-69
2021/07/20 00:15:35;;;;;;;40.83;34.30;;;;;;;-145.12;100.00;63763.75;341837;28;137882;-69
2021/07/20 00:16:46;;;;;;;7.45;6.13;;;;;;;-145.12;100.00;63763.75;341919;28;136768;-69
2021/07/20 00:17:59;;;;;;;9.65;5.97;;;;;;;-145.12;100.00;63763.75;340919;28;160275;-68
2021/07/20 00:19:14;;;;;;;9.48;6.80;;;;;;;-145.12;100.00;63763.75;342184;28;137214;-70
2021/07/20 00:20:27;;;;;;;11.45;7.05;;;;;;;-145.12;100.00;63763.75;341765;28;137681;-69
2021/07/20 00:21:38;;;;;;;10.00;8.32;;;;;;;-145.12;100.00;63763.75;341060;28;161184;-69
2021/07/20 00:22:50;;;;;;;9.95;7.22;;;;;;;-145.12;100.00;63763.75;341728;28;138113;-69
2021/07/20 00:24:03;;;;;;;20.63;16.50;;;;;;;-145.12;100.00;63763.75;341538;28;136509;-70
2021/07/20 00:25:17;;;;;;;12.43;7.82;;;;;;;-145.12;100.00;63763.75;341296;28;161324;-69
2021/07/20 00:26:29;;;;;;;10.32;7.25;;;;;;;-145.12;100.00;63763.75;341808;28;137236;-69
2021/07/20 00:27:43;;;;;;;11.48;7.20;;;;;;;-145.12;100.00;63763.75;343383;28;138590;-68
2021/07/20 00:28:54;;;;;;;11.77;6.68;;;;;;;-145.12;100.00;63763.75;342842;28;137342;-68
2021/07/20 00:30:07;;;;;;;8.65;6.65;;;;;;;-145.12;100.00;63763.75;344566;28;138482;-69
2021/07/20 00:31:20;;;;;;;11.26;7.02;;;;;;;-145.12;100.00;63763.75;343782;28;161753;-69
2021/07/20 00:32:31;;;;;;;9.75;6.55;;;;;;;-145.12;100.00;63763.75;344299;28;138870;-68
2021/07/20 00:33:42;;;;;;;10.65;6.78;;;;;;;-145.12;100.00;63763.75;341841;28;137946;-68
2021/07/20 00:34:54;;;;;;;10.76;9.12;;;;;;;-145.12;100.00;63763.75;340827;28;160152;-69
2021/07/20 00:36:07;;;;;;;11.90;6.85;;;;;;;-145.12;100.00;63763.75;341678;28;137127;-69
2021/07/20 00:37:18;;;;;;;11.18;7.07;;;;;;;-145.12;100.00;63763.75;341757;28;137168;-68
2021/07/20 00:38:31;;;;;;;8.52;7.10;;;;;;;-145.12;100.00;63763.75;340946;28;160305;-69
2021/07/20 00:39:45;;;;;;;10.50;7.07;;;;;;;-145.12;100.00;63763.75;341899;28;136666;-68
2021/07/20 00:40:56;;;;;;;9.23;6.57;;;;;;;-145.12;100.00;63763.75;341787;28;136480;-68
2021/07/20 00:42:07;;;;;;;9.74;7.16;;;;;;;-145.12;100.00;63763.75;341030;28;161266;-68
2021/07/20 00:43:18;;;;;;;10.27;6.93;;;;;;;-145.12;100.00;63763.75;341767;28;137461;-68
2021/07/20 00:44:32;;;;;;;11.70;6.95;;;;;;;-145.12;100.00;63763.75;341646;28;137226;-69
2021/07/20 00:45:44;;;;;;;10.35;6.57;;;;;;;-145.12;100.00;63763.75;341809;28;138195;-69
2021/07/20 00:46:58;;;;;;;8.90;6.70;;;;;;;-145.12;100.00;63763.75;340779;28;161136;-69
2021/07/20 00:48:12;;;;;;;9.23;6.70;;;;;;;-145.12;100.00;63763.75;341862;28;138789;-69
2021/07/20 00:49:23;;;;;;;8.23;6.53;;;;;;;-145.12;100.00;63763.75;341846;28;138311;-68
2021/07/20 00:50:40;;;;;;;9.10;6.50;;;;;;;-145.12;100.00;63763.75;341765;28;138543;-69
2021/07/20 00:51:51;;;;;;;8.15;6.70;;;;;;;-145.12;100.00;63763.75;341859;28;136384;-69
2021/07/20 00:53:06;;;;;;;8.02;6.65;;;;;;;-145.12;100.00;63763.75;341635;28;137162;-69
2021/07/20 00:54:17;;;;;;;9.18;6.88;;;;;;;-145.12;100.00;63763.75;340926;28;160536;-69
2021/07/20 00:55:29;;;;;;;8.73;6.55;;;;;;;-145.12;100.00;63763.75;341546;28;138754;-68
2021/07/20 00:56:41;;;;;;;9.98;6.90;;;;;;;-145.12;100.00;63763.75;343027;28;138557;-68
2021/07/20 00:57:53;;;;;;;8.85;6.45;;;;;;;-145.12;100.00;63763.75;343156;28;136272;-70
2021/07/20 00:59:09;;;;;;;9.23;6.78;;;;;;;-145.12;100.00;63763.75;343417;28;136571;-69
2021/07/20 01:00:21;;;;;;;9.05;7.30;;;;;;;-145.12;100.00;63763.75;343213;28;136348;-69
2021/07/20 01:01:32;;;;;;;10.57;6.75;;;;;;;-145.12;100.00;63763.75;343976;28;161555;-69
2021/07/20 01:02:44;;;;;;;8.80;7.00;;;;;;;-145.12;100.00;63763.75;343154;28;137226;-69
2021/07/20 01:03:57;;;;;;;10.02;7.28;;;;;;;-145.12;100.00;63763.75;342929;28;138117;-69
2021/07/20 01:05:10;;;;;;;10.98;7.40;;;;;;;-145.12;100.00;63763.75;343098;28;136288;-69
2021/07/20 01:06:24;;;;;;;9.38;7.15;;;;;;;-145.12;100.00;63763.75;343278;28;137240;-69
2021/07/20 01:07:41;;;;;;;9.75;7.38;;;;;;;-145.12;100.00;63763.75;343311;28;137382;-69
2021/07/20 01:08:54;;;;;;;11.93;7.75;;;;;;;-145.12;100.00;63763.75;343380;28;138207;-69
2021/07/20 01:10:06;;;;;;;9.45;7.43;;;;;;;-145.12;100.00;63763.75;343148;28;138278;-69
2021/07/20 01:11:18;;;;;;;11.55;7.28;;;;;;;-145.12;100.00;63763.75;343018;28;138265;-69
2021/07/20 01:12:35;;;;;;;9.23;7.30;;;;;;;-145.12;100.00;63763.75;345289;28;160119;-68
2021/07/20 01:13:47;;;;;;;11.27;7.50;;;;;;;-145.12;100.00;63763.75;345625;28;137277;-69
2021/07/20 01:15:01;;;;;;;8.30;7.30;;;;;;;-145.12;100.00;63763.75;345796;28;137310;-69
2021/07/20 01:16:14;;;;;;;11.77;7.68;;;;;;;-145.12;100.00;63763.75;343065;28;137251;-69
2021/07/20 01:17:28;;;;;;;10.80;8.15;;;;;;;-145.12;100.00;63763.75;342925;28;137086;-68
2021/07/20 01:18:41;;;;;;;10.38;7.65;;;;;;;-145.12;100.00;63763.75;343025;28;138022;-68
2021/07/20 01:19:53;;;;;;;11.00;7.95;;;;;;;-145.12;100.00;63763.75;343129;28;137158;-68
2021/07/20 01:21:09;;;;;;;10.93;8.30;;;;;;;-145.12;100.00;63763.75;342921;28;138144;-68
2021/07/20 01:22:29;;;;;;;11.80;8.30;;;;;;;-145.12;100.00;63763.75;343019;28;138248;-68
2021/07/20 01:23:45;;;;;;;12.02;8.70;;;;;;;-145.12;100.00;63763.75;343132;28;138611;-70
2021/07/20 01:24:57;;;;;;;12.15;8.48;;;;;;;-145.12;100.00;63763.75;342991;28;137142;-68
2021/07/20 01:26:09;;;;;;;10.38;8.68;;;;;;;-145.12;100.00;63763.75;343026;28;136487;-69
2021/07/20 01:27:21;;;;;;;9.70;8.27;;;;;;;-145.12;100.00;63763.75;342411;28;161414;-67
2021/07/20 01:28:33;;;;;;;10.75;8.20;;;;;;;-145.12;100.00;63763.75;342995;28;138162;-68
2021/07/20 01:29:53;;;;;;;14.02;8.23;;;;;;;-145.12;100.00;63763.75;342973;28;136417;-68
2021/07/20 01:31:09;;;;;;;10.32;7.93;;;;;;;-145.12;100.00;63763.75;343672;28;159094;-69
2021/07/20 01:32:23;;;;;;;13.35;7.95;;;;;;;-145.12;100.00;63763.75;344577;28;137530;-69
2021/07/20 01:33:36;;;;;;;10.65;7.53;;;;;;;-145.12;100.00;63763.75;344325;28;136643;-69
2021/07/20 01:34:49;;;;;;;11.32;8.32;;;;;;;-145.12;100.00;63763.75;343107;28;137165;-70
2021/07/20 01:36:04;;;;;;;11.07;7.50;;;;;;;-145.12;100.00;63763.75;344361;28;137073;-69
2021/07/20 01:37:18;;;;;;;10.75;7.63;;;;;;;-145.12;100.00;63763.75;344565;28;137133;-69
2021/07/20 01:38:31;;;;;;;9.45;7.05;;;;;;;-145.12;100.00;63763.75;344271;28;138572;-69
2021/07/20 01:39:44;;;;;;;13.70;7.30;;;;;;;-145.12;100.00;63763.75;344442;28;138489;-67
2021/07/20 01:40:59;;;;;;;14.55;6.88;;;;;;;-145.12;100.00;63763.75;343151;28;138122;-69
2021/07/20 01:42:14;;;;;;;17.92;7.53;;;;;;;-145.12;100.00;63763.75;342839;28;138142;-67
2021/07/20 01:43:27;;;;;;;8.77;6.88;;;;;;;-145.12;100.00;63763.75;342992;28;137407;-67
2021/07/20 01:44:43;;;;;;;10.30;7.03;;;;;;;-145.12;100.00;63763.75;342240;28;160076;-68
2021/07/20 01:45:56;;;;;;;9.20;7.18;;;;;;;-145.12;100.00;63763.75;344391;28;137437;-68
2021/07/20 01:47:07;;;;;;;9.23;6.70;;;;;;;-145.12;100.00;63763.75;344445;28;137884;-68
2021/07/20 01:48:21;;;;;;;9.75;7.40;;;;;;;-145.12;100.00;63763.75;344609;28;137817;-68
2021/07/20 01:49:34;;;;;;;12.00;7.43;;;;;;;-145.12;100.00;63763.75;344573;28;137344;-68
2021/07/20 01:50:47;;;;;;;9.73;6.72;;;;;;;-145.12;100.00;63763.75;344706;28;137644;-68
2021/07/20 01:52:00;;;;;;;9.48;6.45;;;;;;;-145.12;100.00;63763.75;343192;28;138237;-69
2021/07/20 01:53:14;;;;;;;8.23;6.63;;;;;;;-145.12;100.00;63763.75;343399;28;137624;-68
2021/07/20 01:54:29;;;;;;;7.70;6.10;;;;;;;-145.12;100.00;63763.75;342377;28;160341;-67
2021/07/20 01:55:42;;;;;;;9.90;6.60;;;;;;;-145.12;100.00;63763.75;343450;28;136562;-67
2021/07/20 01:56:53;;;;;;;8.82;6.40;;;;;;;-145.12;100.00;63763.75;341758;28;137605;-67
2021/07/20 01:58:04;;;;;;;9.08;6.48;;;;;;;-145.12;100.00;63763.75;341058;28;161211;-69
2021/07/20 01:59:15;;;;;;;9.38;6.70;;;;;;;-145.12;100.00;63763.75;342377;28;138239;-69
2021/07/20 02:00:27;;;;;;;9.25;6.53;;;;;;;-145.12;100.00;63763.75;341017;28;160202;-68
2021/07/20 02:03:44;;;;;;;8.50;6.28;;;;;;;-145.12;100.00;63763.75;341709;28;137874;-68
2021/07/20 02:09:48;;;;;;;10.07;6.40;;;;;;;-145.12;100.00;63763.75;336676;29;137432;-69
2021/07/20 02:11:02;;;;;;;9.07;6.55;;;;;;;-145.12;100.00;63763.75;335702;29;160042;-68
2021/07/20 02:12:18;;;;;;;8.68;6.53;;;;;;;-145.12;100.00;63763.75;336399;29;138173;-69
2021/07/20 02:13:30;;;;;;;11.27;6.45;;;;;;;-145.12;100.00;63763.75;335807;29;160164;-68
2021/07/20 02:14:44;;;;;;;10.30;6.60;;;;;;;-145.12;100.00;63763.75;336202;29;138191;-68
2021/07/20 02:15:56;;;;;;;8.23;6.70;;;;;;;-145.12;100.00;63763.75;336478;29;138297;-68
2021/07/20 02:17:10;;;;;;;7.45;6.60;;;;;;;-145.12;100.00;63763.75;336496;29;136333;-68
2021/07/20 02:18:26;;;;;;;7.70;6.30;;;;;;;-145.12;100.00;63763.75;335805;29;160929;-68
2021/07/20 02:19:46;;;;;;;9.40;6.60;;;;;;;-145.12;100.00;63763.75;336655;29;137322;-68
2021/07/20 02:21:05;;;;;;;8.02;6.57;;;;;;;-145.12;100.00;63763.75;336270;29;137068;-68
2021/07/20 02:22:19;;;;;;;10.23;6.18;;;;;;;-145.12;100.00;63763.75;336568;29;137412;-68
2021/07/20 02:23:31;;;;;;;8.57;6.53;;;;;;;-145.12;100.00;63763.75;336431;28;137053;-68
2021/07/20 02:24:43;;;;;;;9.88;6.28;;;;;;;-145.12;100.00;63763.75;337777;28;138837;-68
2021/07/20 02:25:55;;;;;;;7.97;6.05;;;;;;;-145.12;100.00;63763.75;337773;28;138366;-68
2021/07/20 02:27:08;;;;;;;7.68;6.38;;;;;;;-145.12;100.00;63763.75;337872;28;138333;-68
2021/07/20 02:28:22;;;;;;;9.40;6.78;;;;;;;-145.12;100.00;63763.75;337838;28;137355;-68
2021/07/20 02:29:34;;;;;;;10.60;7.20;;;;;;;-145.12;100.00;63763.75;337752;28;138318;-69
2021/07/20 02:30:48;;;;;;;8.57;6.53;;;;;;;-145.12;100.00;63763.75;337904;28;136467;-68
2021/07/20 02:32:02;;;;;;;9.82;6.20;;;;;;;-145.12;100.00;63763.75;337010;28;160068;-69
2021/07/20 02:33:14;;;;;;;11.40;6.88;;;;;;;-145.12;100.00;63763.75;337662;28;138296;-68
2021/07/20 02:34:28;;;;;;;8.23;6.18;;;;;;;-145.12;100.00;63763.75;337631;28;137083;-68
2021/07/20 02:35:42;;;;;;;8.77;6.43;;;;;;;-145.12;100.00;63763.75;336586;29;138173;-68
2021/07/20 02:36:54;;;;;;;10.23;6.70;;;;;;;-145.12;100.00;63763.75;336562;29;137403;-68
2021/07/20 02:38:06;;;;;;;9.23;6.55;;;;;;;-145.12;100.00;63763.75;336392;29;138101;-68
2021/07/20 02:39:19;;;;;;;9.23;6.13;;;;;;;-145.12;100.00;63763.75;335848;29;159917;-68
2021/07/20 02:40:32;;;;;;;9.23;6.10;;;;;;;-145.12;100.00;63763.75;336502;29;137094;-68
2021/07/20 02:41:46;;;;;;;10.18;6.93;;;;;;;-145.12;100.00;63763.75;336366;29;136561;-69
2021/07/20 02:42:59;;;;;;;8.43;6.30;;;;;;;-145.12;100.00;63763.75;335194;29;137211;-69
2021/07/20 02:44:11;;;;;;;9.52;6.07;;;;;;;-145.12;100.00;63763.75;335284;29;137028;-68
2021/07/20 02:45:24;;;;;;;10.75;6.68;;;;;;;-145.12;100.00;63763.75;343304;28;137188;-67
2021/07/20 02:46:36;;;;;;;7.65;6.20;;;;;;;-145.12;100.00;63763.75;343128;28;137227;-68
2021/07/20 02:47:48;;;;;;;9.57;6.32;;;;;;;-145.12;100.00;63763.75;342064;28;138436;-68
2021/07/20 02:49:00;;;;;;;7.32;6.07;;;;;;;-145.12;100.00;63763.75;341090;28;160260;-68
2021/07/20 02:50:13;;;;;;;7.93;6.22;;;;;;;-145.12;100.00;63763.75;341774;28;138329;-68
2021/07/20 02:51:26;;;;;;;7.68;6.10;;;;;;;-145.12;100.00;63763.75;341751;28;137320;-68
2021/07/20 02:52:40;;;;;;;9.88;6.25;;;;;;;-145.12;100.00;63763.75;341990;28;136418;-68
2021/07/20 02:53:53;;;;;;;8.95;6.10;;;;;;;-145.12;100.00;63763.75;341995;28;137542;-68
2021/07/20 02:55:05;;;;;;;9.77;6.30;;;;;;;-145.12;100.00;63763.75;341924;28;136591;-68
2021/07/20 02:56:17;;;;;;;8.80;6.20;;;;;;;-145.12;100.00;63763.75;344663;28;136469;-68
2021/07/20 02:57:29;;;;;;;9.38;6.50;;;;;;;-145.12;100.00;63763.75;344510;28;137092;-68
2021/07/20 02:58:42;;;;;;;9.57;6.45;;;;;;;-145.12;100.00;63763.75;344589;28;137213;-68
2021/07/20 02:59:56;;;;;;;9.50;6.38;;;;;;;-145.12;100.00;63763.75;345913;28;138068;-68
2021/07/20 03:01:10;;;;;;;9.70;6.30;;;;;;;-145.12;100.00;63763.75;345801;28;137256;-68
2021/07/20 03:02:23;;;;;;;8.52;6.38;;;;;;;-145.12;100.00;63763.75;345859;28;137269;-68
2021/07/20 03:03:35;;;;;;;7.82;5.88;;;;;;;-145.12;100.00;63763.75;345907;28;138477;-68
2021/07/20 03:04:47;;;;;;;9.98;6.38;;;;;;;-145.12;100.00;63763.75;346069;28;138509;-68
2021/07/20 03:05:59;;;;;;;9.88;6.38;;;;;;;-145.12;100.00;63763.75;344003;28;160032;-69
2021/07/20 03:07:13;;;;;;;7.93;6.20;;;;;;;-145.12;100.00;63763.75;345909;28;138255;-68
2021/07/20 03:08:28;;;;;;;9.20;6.45;;;;;;;-145.12;100.00;63763.75;343296;28;137855;-69
2021/07/20 03:09:41;;;;;;;11.40;6.95;;;;;;;-145.12;100.00;63763.75;343081;28;137109;-69
2021/07/20 03:10:53;;;;;;;9.82;7.07;;;;;;;-145.12;100.00;63763.75;343219;28;138181;-68
2021/07/20 03:12:10;;;;;;;9.77;6.70;;;;;;;-145.12;100.00;63763.75;343225;28;136444;-68
2021/07/20 03:13:25;;;;;;;9.38;6.90;;;;;;;-145.12;100.00;63763.75;343229;28;137859;-69
2021/07/20 03:14:40;;;;;;;7.75;6.13;;;;;;;-145.12;100.00;63763.75;343020;28;137215;-68
2021/07/20 03:15:53;;;;;;;8.25;6.10;;;;;;;-145.12;100.00;63763.75;343298;28;137011;-69
2021/07/20 03:17:07;;;;;;;8.07;6.32;;;;;;;-145.12;100.00;63763.75;343211;28;136988;-68
2021/07/20 03:18:25;;;;;;;9.05;6.55;;;;;;;-145.12;100.00;63763.75;343208;28;138530;-68
2021/07/20 03:19:39;;;;;;;7.90;6.28;;;;;;;-145.12;100.00;63763.75;343266;28;138636;-68
2021/07/20 03:20:52;;;;;;;7.60;6.30;;;;;;;-145.12;100.00;63763.75;343806;28;136982;-69
2021/07/20 03:22:06;;;;;;;10.38;6.60;;;;;;;-145.12;100.00;63763.75;343254;28;137084;-68
2021/07/20 03:23:20;;;;;;;9.75;6.95;;;;;;;-145.12;100.00;63763.75;342528;28;160263;-68
2021/07/20 03:24:34;;;;;;;9.38;7.10;;;;;;;-145.12;100.00;63763.75;342580;28;159337;-68
2021/07/20 03:25:46;;;;;;;9.18;6.70;;;;;;;-145.12;100.00;63763.75;343181;28;138328;-69
2021/07/20 03:26:58;;;;;;;10.45;7.28;;;;;;;-145.12;100.00;63763.75;343162;28;137035;-68
2021/07/20 03:28:11;;;;;;;8.10;6.68;;;;;;;-145.12;100.00;63763.75;343298;28;136987;-68
2021/07/20 03:29:23;;;;;;;8.55;7.10;;;;;;;-145.12;100.00;63763.75;342998;28;137589;-68
2021/07/20 03:30:41;;;;;;;9.02;6.72;;;;;;;-145.12;100.00;63763.75;345932;28;137225;-68
2021/07/20 03:31:53;;;;;;;10.27;6.70;;;;;;;-145.12;100.00;63763.75;346026;28;137468;-68
2021/07/20 03:33:06;;;;;;;9.43;7.18;;;;;;;-145.12;100.00;63763.75;345769;28;137274;-68
2021/07/20 03:34:21;;;;;;;8.68;6.68;;;;;;;-145.12;100.00;63763.75;346028;28;136491;-68
2021/07/20 03:35:33;;;;;;;9.27;6.95;;;;;;;-145.12;100.00;63763.75;345798;28;137288;-68
2021/07/20 03:36:45;;;;;;;10.68;6.95;;;;;;;-145.12;100.00;63763.75;345900;28;137979;-68
2021/07/20 03:37:57;;;;;;;10.20;7.20;;;;;;;-145.12;100.00;63763.75;344509;28;135574;-68
2021/07/20 03:39:08;;;;;;;9.02;7.13;;;;;;;-145.12;100.00;63763.75;346037;28;137540;-68
2021/07/20 03:40:22;;;;;;;10.65;6.82;;;;;;;-145.12;100.00;63763.75;345935;28;138310;-68
2021/07/20 03:41:34;;;;;;;8.68;6.43;;;;;;;-145.12;100.00;63763.75;343149;28;137738;-68
2021/07/20 03:42:45;;;;;;;10.65;6.95;;;;;;;-145.12;100.00;63763.75;343355;28;136982;-67
2021/07/20 03:43:57;;;;;;;10.88;6.80;;;;;;;-145.12;100.00;63763.75;343195;28;138120;-68
2021/07/20 03:45:09;;;;;;;10.30;7.20;;;;;;;-145.12;100.00;63763.75;343310;28;137208;-68
2021/07/20 03:46:21;;;;;;;11.30;7.10;;;;;;;-145.12;100.00;63763.75;343177;28;136514;-68
2021/07/20 03:47:33;;;;;;;9.95;7.47;;;;;;;-145.12;100.00;63763.75;342364;28;160280;-68
2021/07/20 03:48:45;;;;;;;11.40;6.90;;;;;;;-145.12;100.00;63763.75;345037;28;137231;-67
2021/07/20 03:49:57;;;;;;;9.95;7.15;;;;;;;-145.12;100.00;63763.75;343667;28;160859;-68
2021/07/20 03:51:10;;;;;;;10.20;6.93;;;;;;;-145.12;100.00;63763.75;343047;28;138248;-68
2021/07/20 03:52:22;;;;;;;10.63;6.80;;;;;;;-145.12;100.00;63763.75;341706;28;138052;-68
2021/07/20 03:53:37;;;;;;;10.20;6.68;;;;;;;-145.12;100.00;63763.75;343162;28;136475;-68
2021/07/20 03:54:48;;;;;;;9.52;6.50;;;;;;;-145.12;100.00;63763.75;344490;28;138175;-68
2021/07/20 03:56:02;;;;;;;10.68;7.05;;;;;;;-145.12;100.00;63763.75;343032;28;137105;-68
2021/07/20 03:57:17;;;;;;;9.63;7.13;;;;;;;-145.12;100.00;63763.75;343253;28;137145;-68
2021/07/20 03:58:29;;;;;;;8.77;6.90;;;;;;;-145.12;100.00;63763.75;342440;28;161006;-68
2021/07/20 03:59:42;;;;;;;11.15;7.10;;;;;;;-145.12;100.00;63763.75;341897;28;138170;-68
2021/07/20 04:00:58;;;;;;;8.55;6.75;;;;;;;-145.12;100.00;63763.75;341775;28;138343;-68
2021/07/20 04:02:11;;;;;;;11.15;7.00;;;;;;;-145.12;100.00;63763.75;341053;28;160573;-68
2021/07/20 04:03:26;;;;;;;10.40;6.75;;;;;;;-145.12;100.00;63763.75;341730;28;138148;-67
2021/07/20 04:04:40;;;;;;;9.32;7.05;;;;;;;-145.12;100.00;63763.75;341210;28;161075;-68
2021/07/20 04:06:11;;;;;;;10.00;7.25;;;;;;;-145.12;100.00;63763.75;341699;28;137825;-68
2021/07/20 04:07:24;;;;;;;10.23;7.28;;;;;;;-145.12;100.00;63763.75;341951;28;138342;-68
2021/07/20 04:08:37;;;;;;;9.23;6.78;;;;;;;-145.12;100.00;63763.75;341604;28;138194;-68
2021/07/20 04:09:50;;;;;;;11.02;7.18;;;;;;;-145.12;100.00;63763.75;342593;28;137145;-68
2021/07/20 04:11:01;;;;;;;15.88;7.30;;;;;;;-145.12;100.00;63763.75;341743;28;136923;-68
2021/07/20 04:12:13;;;;;;;9.45;6.90;;;;;;;-145.12;100.00;63763.75;341050;28;159422;-68
2021/07/20 04:13:25;;;;;;;8.63;6.97;;;;;;;-145.12;100.00;63763.75;341971;28;138261;-68
2021/07/20 04:14:36;;;;;;;10.32;7.15;;;;;;;-145.12;100.00;63763.75;342370;28;137104;-68
2021/07/20 04:15:53;;;;;;;9.48;6.82;;;;;;;-145.12;100.00;63763.75;343268;28;137171;-68
2021/07/20 04:17:06;;;;;;;10.82;7.07;;;;;;;-145.12;100.00;63763.75;341501;28;137185;-68
2021/07/20 04:18:18;;;;;;;10.35;7.13;;;;;;;-145.12;100.00;63763.75;341865;28;137387;-68
2021/07/20 04:19:30;;;;;;;11.50;7.72;;;;;;;-145.12;100.00;63763.75;342862;28;138467;-67
2021/07/20 04:20:43;;;;;;;11.07;7.20;;;;;;;-145.12;100.00;63763.75;343545;28;137253;-68
2021/07/20 04:21:55;;;;;;;12.52;7.10;;;;;;;-145.12;100.00;63763.75;343292;28;137954;-68
2021/07/20 04:23:07;;;;;;;11.10;7.35;;;;;;;-145.12;100.00;63763.75;342370;28;161419;-68
2021/07/20 04:24:18;;;;;;;10.27;7.30;;;;;;;-145.12;100.00;63763.75;344406;28;138247;-68
2021/07/20 04:25:30;;;;;;;11.40;7.50;;;;;;;-145.12;100.00;63763.75;344330;28;137110;-68
2021/07/20 04:26:43;;;;;;;9.70;7.60;;;;;;;-145.12;100.00;63763.75;344538;28;137644;-68
2021/07/20 04:27:55;;;;;;;9.73;7.05;;;;;;;-145.12;100.00;63763.75;344438;28;137094;-67
2021/07/20 04:29:07;;;;;;;10.07;7.40;;;;;;;-145.12;100.00;63763.75;344330;28;137193;-67
2021/07/20 04:30:19;;;;;;;13.68;7.68;;;;;;;-145.12;100.00;63763.75;344341;28;138273;-68
2021/07/20 04:31:32;;;;;;;10.48;7.00;;;;;;;-145.12;100.00;63763.75;340931;28;161242;-68
2021/07/20 04:32:48;;;;;;;10.02;6.95;;;;;;;-145.12;100.00;63763.75;341716;28;138212;-68
2021/07/20 04:34:00;;;;;;;11.75;6.80;;;;;;;-145.12;100.00;63763.75;341646;28;138296;-68
2021/07/20 04:35:13;;;;;;;12.18;7.03;;;;;;;-145.12;100.00;63763.75;341811;28;138524;-68
2021/07/20 04:36:25;;;;;;;12.63;7.70;;;;;;;-145.12;100.00;63763.75;342030;28;137372;-68
2021/07/20 04:37:37;;;;;;;12.52;7.53;;;;;;;-145.12;100.00;63763.75;341662;28;138407;-68
2021/07/20 04:38:50;;;;;;;12.30;7.32;;;;;;;-145.12;100.00;63763.75;341818;28;137450;-68
2021/07/20 04:40:03;;;;;;;9.50;7.55;;;;;;;-145.12;100.00;63763.75;341647;28;137071;-68
2021/07/20 04:41:16;;;;;;;11.38;7.53;;;;;;;-145.12;100.00;63763.75;341580;28;137163;-68
2021/07/20 04:42:27;;;;;;;10.88;7.68;;;;;;;-145.12;100.00;63763.75;341635;28;137128;-68
2021/07/20 04:43:39;;;;;;;10.55;7.47;;;;;;;-145.12;100.00;63763.75;341995;28;137828;-67
2021/07/20 04:44:50;;;;;;;11.40;7.57;;;;;;;-145.12;100.00;63763.75;341908;28;137375;-68
2021/07/20 04:46:05;;;;;;;11.88;7.25;;;;;;;-145.12;100.00;63763.75;341573;28;136469;-69
2021/07/20 04:47:19;;;;;;;11.00;8.05;;;;;;;-145.12;100.00;63763.75;341842;28;137394;-67
2021/07/20 04:48:32;;;;;;;11.75;7.57;;;;;;;-145.12;100.00;63763.75;341752;28;136938;-68
2021/07/20 04:49:43;;;;;;;14.50;7.75;;;;;;;-145.12;100.00;63763.75;341700;28;137374;-68
2021/07/20 04:50:55;;;;;;;10.30;7.60;;;;;;;-145.12;100.00;63763.75;341790;28;138397;-68
2021/07/20 04:52:07;;;;;;;12.10;7.60;;;;;;;-145.12;100.00;63763.75;341001;28;161395;-68
2021/07/20 04:53:19;;;;;;;12.52;7.82;;;;;;;-145.12;100.00;63763.75;341728;28;137333;-68
2021/07/20 04:54:33;;;;;;;14.52;8.23;;;;;;;-145.12;100.00;63763.75;342810;28;138230;-68
2021/07/20 04:55:46;;;;;;;12.98;8.10;;;;;;;-145.12;100.00;63763.75;341842;28;138300;-67
2021/07/20 04:56:58;;;;;;;12.13;8.30;;;;;;;-145.12;100.00;63763.75;341312;28;160805;-68
2021/07/20 04:58:09;;;;;;;11.98;7.80;;;;;;;-145.12;100.00;63763.75;342973;28;138258;-68
2021/07/20 04:59:20;;;;;;;12.75;7.63;;;;;;;-145.12;100.00;63763.75;343034;28;137188;-68
2021/07/20 05:00:32;;;;;;;11.13;7.70;;;;;;;-145.12;100.00;63763.75;343081;28;138334;-68
2021/07/20 05:01:47;;;;;;;11.13;8.48;;;;;;;-145.12;100.00;63763.75;343079;28;138536;-68
2021/07/20 05:03:00;;;;;;;13.98;8.15;;;;;;;-145.12;100.00;63763.75;342868;28;137001;-68
2021/07/20 05:04:11;;;;;;;17.33;8.20;;;;;;;-145.12;100.00;63763.75;344518;28;137198;-68
2021/07/20 05:05:25;;;;;;;15.52;8.65;;;;;;;-145.12;100.00;63763.75;343226;28;136443;-68
2021/07/20 05:06:38;;;;;;;10.70;7.72;;;;;;;-145.12;100.00;63763.75;342870;28;138846;-68
2021/07/20 05:07:53;;;;;;;12.52;8.38;;;;;;;-145.12;100.00;63763.75;342371;28;159725;-68
2021/07/20 05:09:05;;;;;;;13.65;8.32;;;;;;;-145.12;100.00;63763.75;342080;28;160943;-68
2021/07/20 05:10:17;;;;;;;13.45;8.18;;;;;;;-145.12;100.00;63763.75;342724;28;138476;-69
2021/07/20 05:11:29;;;;;;;12.00;8.13;;;;;;;-145.12;100.00;63763.75;341423;28;138851;-68
2021/07/20 05:12:42;;;;;;;12.27;8.38;;;;;;;-145.12;100.00;63763.75;342251;28;137317;-67
2021/07/20 05:13:53;;;;;;;13.77;8.05;;;;;;;-145.12;100.00;63763.75;342347;28;137246;-68
2021/07/20 05:15:04;;;;;;;17.10;8.85;;;;;;;-145.12;100.00;63763.75;343055;28;137380;-68
2021/07/20 05:16:17;;;;;;;12.98;8.60;;;;;;;-145.12;100.00;63763.75;343171;28;138466;-68
2021/07/20 05:17:29;;;;;;;15.73;8.63;;;;;;;-145.12;100.00;63763.75;343067;28;138450;-69
2021/07/20 05:18:42;;;;;;;15.68;8.98;;;;;;;-145.12;100.00;63763.75;342764;28;137850;-68
2021/07/20 05:19:55;;;;;;;13.35;8.98;;;;;;;-145.12;100.00;63763.75;343240;28;137006;-68
2021/07/20 05:21:07;;;;;;;12.25;8.20;;;;;;;-145.12;100.00;63763.75;343032;28;138325;-69
2021/07/20 05:22:19;;;;;;;13.10;8.75;;;;;;;-145.12;100.00;63763.75;342354;28;161439;-69
2021/07/20 05:23:33;;;;;;;13.70;8.60;;;;;;;-145.12;100.00;63763.75;342259;28;160812;-68
2021/07/20 05:24:44;;;;;;;11.63;8.20;;;;;;;-145.12;100.00;63763.75;342331;28;138340;-68
2021/07/20 05:25:56;;;;;;;12.02;8.52;;;;;;;-145.12;100.00;63763.75;343632;28;138164;-69
2021/07/20 05:27:10;;;;;;;14.40;8.80;;;;;;;-145.12;100.00;63763.75;342686;28;161283;-69
2021/07/20 05:28:26;;;;;;;14.13;8.68;;;;;;;-145.12;100.00;63763.75;341557;28;160265;-68
2021/07/20 05:29:38;;;;;;;14.02;9.40;;;;;;;-145.12;100.00;63763.75;342001;28;138644;-69
2021/07/20 05:30:51;;;;;;;16.38;8.98;;;;;;;-145.12;100.00;63763.75;342119;28;138077;-69
2021/07/20 05:32:02;;;;;;;13.85;9.23;;;;;;;-145.12;100.00;63763.75;342250;28;161292;-68
2021/07/20 05:33:17;;;;;;;15.77;9.30;;;;;;;-145.12;100.00;63763.75;343446;28;137031;-68
2021/07/20 05:34:29;;;;;;;13.63;9.43;;;;;;;-145.12;100.00;63763.75;343241;28;138304;-69
2021/07/20 05:35:41;;;;;;;15.48;9.57;;;;;;;-145.12;100.00;63763.75;343370;28;137072;-68
2021/07/20 05:36:54;;;;;;;14.52;10.07;;;;;;;-145.12;100.00;63763.75;343397;28;137059;-69